Time;durP1;ratioP1;P1;durP2;ratioP2;P2;SDS_P1;SDS_P2;PMS_P1;PMS_P2;Temp;Humidity;BMP_temperature;BMP_pressure;BME280_temperature;BME280_humidity;BME280_pressure;Samples;Min_cycle;Max_cycle;Signal;HPM_P1;HPM_P2
2022/12/14 00:00:44;;;;;;;;;;;20.70;71.00;;;;;;5037107;28;19908;-69
2022/12/14 00:03:11;;;;;;;;;;;20.90;70.70;;;;;;5035564;28;19948;-69
2022/12/14 00:05:37;;;;;;;;;;;21.10;70.00;;;;;;5037071;28;19921;-71
2022/12/14 00:08:04;;;;;;;;;;;21.20;69.90;;;;;;5037092;28;19915;-71
2022/12/14 00:10:32;;;;;;;;;;;21.30;70.00;;;;;;5035559;28;19915;-67
2022/12/14 00:12:59;;;;;;;;;;;21.40;70.10;;;;;;5034764;28;19912;-70
2022/12/14 00:15:25;;;;;;;;;;;21.60;69.20;;;;;;5034769;28;19905;-68
2022/12/14 00:17:52;;;;;;;;;;;21.60;68.30;;;;;;5036480;28;19909;-67
2022/12/14 00:20:19;;;;;;;;;;;21.30;67.70;;;;;;5035329;28;19912;-67
2022/12/14 00:22:45;;;;;;;;;;;21.30;65.00;;;;;;5035495;28;19908;-67
2022/12/14 00:25:12;;;;;;;;;;;21.30;64.60;;;;;;5035402;28;19964;-69
2022/12/14 00:27:43;;;;;;;;;;;21.40;64.70;;;;;;5036795;28;20003;-68
2022/12/14 00:30:11;;;;;;;;;;;21.50;65.20;;;;;;5036722;28;19912;-71
2022/12/14 00:32:37;;;;;;;;;;;21.50;64.80;;;;;;5036490;28;19916;-70
2022/12/14 00:35:04;;;;;;;;;;;21.30;64.80;;;;;;5036534;28;19909;-71
2022/12/14 00:37:31;;;;;;;;;;;21.30;64.00;;;;;;5034276;28;20715;-69
2022/12/14 00:39:57;;;;;;;;;;;21.40;63.00;;;;;;5035838;28;19916;-70
2022/12/14 00:42:24;;;;;;;;;;;21.40;62.00;;;;;;5034350;28;19971;-68
2022/12/14 00:44:50;;;;;;;;;;;21.60;61.50;;;;;;5036155;28;19908;-69
2022/12/14 00:47:17;;;;;;;;;;;21.80;61.50;;;;;;5034505;28;19917;-68
2022/12/14 00:49:44;;;;;;;;;;;22.00;60.80;;;;;;5036655;28;19974;-69
2022/12/14 00:52:10;;;;;;;;;;;22.20;59.20;;;;;;5037000;28;19996;-69
2022/12/14 00:54:37;;;;;;;;;;;22.20;58.00;;;;;;5045495;28;19923;-67
2022/12/14 00:57:03;;;;;;;;;;;22.20;58.20;;;;;;5054885;28;19908;-68
2022/12/14 00:59:30;;;;;;;;;;;22.10;57.30;;;;;;5054004;28;19909;-71
2022/12/14 01:01:57;;;;;;;;;;;22.30;57.60;;;;;;5055017;28;19951;-69
2022/12/14 01:04:24;;;;;;;;;;;22.30;55.90;;;;;;5054524;28;19909;-69
2022/12/14 01:06:52;;;;;;;;;;;22.50;56.40;;;;;;5053478;28;19924;-69
2022/12/14 01:09:20;;;;;;;;;;;22.70;56.80;;;;;;5055068;28;19912;-69
2022/12/14 01:11:47;;;;;;;;;;;22.80;56.00;;;;;;5056256;28;19908;-69
2022/12/14 01:14:16;;;;;;;;;;;22.90;54.30;;;;;;5056135;28;19944;-69
2022/12/14 01:16:42;;;;;;;;;;;22.80;53.10;;;;;;5055855;28;19908;-70
2022/12/14 01:19:10;;;;;;;;;;;22.80;54.10;;;;;;5054879;28;19909;-67
2022/12/14 01:21:37;;;;;;;;;;;23.00;54.00;;;;;;5052067;28;19912;-71
2022/12/14 01:24:04;;;;;;;;;;;23.10;53.80;;;;;;5055508;28;20005;-69
2022/12/14 01:26:32;;;;;;;;;;;23.00;54.10;;;;;;5052436;28;19968;-68
2022/12/14 01:28:59;;;;;;;;;;;23.20;54.40;;;;;;5055822;28;19912;-71
2022/12/14 01:31:27;;;;;;;;;;;23.30;53.00;;;;;;5052230;28;19908;-69
2022/12/14 01:33:53;;;;;;;;;;;23.30;53.60;;;;;;5056113;28;19911;-69
2022/12/14 01:36:21;;;;;;;;;;;23.20;53.60;;;;;;5054178;28;20283;-69
2022/12/14 01:38:51;;;;;;;;;;;23.40;52.50;;;;;;5053996;28;20272;-72
2022/12/14 01:41:28;;;;;;;;;;;23.50;52.40;;;;;;5055571;28;19912;-69
2022/12/14 01:43:56;;;;;;;;;;;23.60;51.00;;;;;;5046323;28;20301;-68
2022/12/14 01:46:26;;;;;;;;;;;23.40;52.40;;;;;;5053860;28;19916;-73
2022/12/14 01:48:54;;;;;;;;;;;23.50;51.60;;;;;;5045299;28;19955;-73
2022/12/14 01:51:22;;;;;;;;;;;23.50;52.10;;;;;;5045249;28;19908;-70
2022/12/14 01:53:49;;;;;;;;;;;23.50;52.70;;;;;;5054423;28;19916;-66
2022/12/14 01:56:16;;;;;;;;;;;23.80;52.60;;;;;;5054041;28;19915;-67
2022/12/14 01:58:43;;;;;;;;;;;23.90;51.40;;;;;;5052030;28;19975;-66
2022/12/14 02:01:10;;;;;;;;;;;24.30;51.00;;;;;;5053830;28;19919;-68
2022/12/14 02:03:39;;;;;;;;;;;24.50;51.20;;;;;;5032455;28;19912;-66
2022/12/14 02:06:14;;;;;;;;;;;24.60;51.00;;;;;;5035890;28;20281;-68
2022/12/14 02:08:42;;;;;;;;;;;24.60;50.50;;;;;;5051401;28;19962;-71
2022/12/14 02:11:09;;;;;;;;;;;24.80;50.70;;;;;;5044341;28;20375;-72
2022/12/14 02:13:38;;;;;;;;;;;24.60;50.20;;;;;;5031863;28;20265;-68
2022/12/14 02:16:04;;;;;;;;;;;24.80;50.80;;;;;;5045587;28;19978;-67
2022/12/14 02:18:32;;;;;;;;;;;24.60;49.30;;;;;;5041490;28;19909;-74
2022/12/14 02:21:01;;;;;;;;;;;24.70;49.70;;;;;;5048642;28;19966;-68
2022/12/14 02:23:31;;;;;;;;;;;24.60;50.00;;;;;;5043351;28;19965;-72
2022/12/14 02:26:03;;;;;;;;;;;24.50;50.40;;;;;;5043763;28;19921;-67
2022/12/14 02:28:30;;;;;;;;;;;24.50;52.20;;;;;;5039515;28;19913;-69
2022/12/14 02:31:07;;;;;;;;;;;24.60;51.10;;;;;;5043545;28;19924;-70
2022/12/14 02:33:48;;;;;;;;;;;24.90;50.90;;;;;;5040442;28;19920;-70
2022/12/14 02:36:28;;;;;;;;;;;25.30;50.20;;;;;;5045212;28;20011;-74
2022/12/14 02:38:58;;;;;;;;;;;25.30;49.50;;;;;;5045566;28;19920;-73
2022/12/14 02:41:42;;;;;;;;;;;25.50;49.40;;;;;;5047859;28;20387;-68
2022/12/14 02:44:18;;;;;;;;;;;25.70;49.30;;;;;;5045470;28;19920;-74
2022/12/14 02:46:45;;;;;;;;;;;25.70;48.50;;;;;;5047943;28;19935;-70
2022/12/14 02:49:21;;;;;;;;;;;25.80;48.60;;;;;;5050722;28;19912;-73
2022/12/14 02:51:57;;;;;;;;;;;25.30;48.00;;;;;;5057049;28;19931;-68
2022/12/14 02:54:27;;;;;;;;;;;25.50;48.70;;;;;;5056300;28;20256;-70
2022/12/14 02:57:08;;;;;;;;;;;25.90;47.80;;;;;;5052186;28;19912;-74
2022/12/14 02:59:35;;;;;;;;;;;26.60;48.10;;;;;;5056702;28;20277;-72
2022/12/14 03:02:02;;;;;;;;;;;27.60;47.60;;;;;;5052964;28;19912;-69
2022/12/14 03:04:29;;;;;;;;;;;28.20;45.00;;;;;;5039934;28;19939;-71
2022/12/14 03:06:59;;;;;;;;;;;28.40;45.50;;;;;;5055315;28;19916;-72
2022/12/14 03:09:27;;;;;;;;;;;29.10;44.90;;;;;;5052739;28;20371;-70
2022/12/14 03:11:55;;;;;;;;;;;29.60;44.00;;;;;;5051730;28;19913;-71
2022/12/14 03:14:26;;;;;;;;;;;30.10;44.40;;;;;;5042049;28;19998;-68
2022/12/14 03:16:56;;;;;;;;;;;30.30;42.30;;;;;;5056391;28;19908;-70
2022/12/14 03:19:35;;;;;;;;;;;31.10;42.40;;;;;;5055984;28;19909;-70
2022/12/14 03:22:07;;;;;;;;;;;31.70;42.10;;;;;;5052255;28;19921;-69
2022/12/14 03:24:40;;;;;;;;;;;32.40;41.20;;;;;;5045950;28;19974;-68
2022/12/14 03:27:12;;;;;;;;;;;32.60;40.50;;;;;;5050018;28;20070;-68
2022/12/14 03:29:42;;;;;;;;;;;32.60;39.70;;;;;;5050412;28;19921;-70
2022/12/14 03:32:11;;;;;;;;;;;32.70;39.50;;;;;;5036873;28;19913;-70
2022/12/14 03:34:40;;;;;;;;;;;33.30;40.00;;;;;;5045438;28;19996;-69
2022/12/14 03:37:12;;;;;;;;;;;33.70;38.50;;;;;;5050716;28;19912;-66
2022/12/14 03:39:39;;;;;;;;;;;34.10;38.40;;;;;;5053427;28;19909;-70
2022/12/14 03:42:24;;;;;;;;;;;33.60;38.20;;;;;;5051795;28;19919;-77
2022/12/14 03:45:00;;;;;;;;;;;33.10;38.40;;;;;;5055361;28;19916;-70
2022/12/14 03:47:44;;;;;;;;;;;33.40;38.90;;;;;;5055250;28;19942;-72
2022/12/14 03:50:18;;;;;;;;;;;33.90;39.30;;;;;;5043445;28;19908;-69
2022/12/14 03:52:44;;;;;;;;;;;34.30;38.40;;;;;;5052576;28;19917;-70
2022/12/14 03:55:20;;;;;;;;;;;34.20;38.60;;;;;;5057309;28;20030;-75
2022/12/14 03:58:05;;;;;;;;;;;34.90;37.70;;;;;;5055285;28;19957;-69
2022/12/14 04:00:35;;;;;;;;;;;35.60;38.50;;;;;;5046564;28;19959;-73
2022/12/14 04:03:08;;;;;;;;;;;36.40;37.60;;;;;;5055974;28;19915;-76
2022/12/14 04:05:38;;;;;;;;;;;36.70;37.20;;;;;;5054388;28;19921;-73
2022/12/14 04:08:10;;;;;;;;;;;36.50;36.30;;;;;;5055836;28;19908;-71
2022/12/14 04:19:03;;;;;;;;;;;34.60;37.10;;;;;;5056493;28;20459;-71
2022/12/14 04:21:39;;;;;;;;;;;34.30;36.90;;;;;;5054643;28;20349;-70
2022/12/14 04:27:04;;;;;;;;;;;35.10;38.20;;;;;;5046467;28;19927;-73
2022/12/14 04:32:21;;;;;;;;;;;34.70;37.20;;;;;;5049524;28;20008;-66
2022/12/14 04:34:49;;;;;;;;;;;34.70;37.70;;;;;;5039263;28;19958;-68
2022/12/14 04:37:18;;;;;;;;;;;35.00;37.40;;;;;;5045015;28;19909;-68
2022/12/14 04:39:45;;;;;;;;;;;35.30;38.40;;;;;;5055183;28;19913;-70
2022/12/14 04:42:14;;;;;;;;;;;35.20;37.90;;;;;;5050105;28;19909;-68
2022/12/14 04:44:43;;;;;;;;;;;35.10;36.50;;;;;;5053171;28;20495;-67
2022/12/14 04:47:10;;;;;;;;;;;35.30;37.30;;;;;;5052643;28;19916;-68
2022/12/14 04:49:40;;;;;;;;;;;35.50;37.60;;;;;;5052991;28;19963;-68
2022/12/14 04:52:33;;;;;;;;;;;35.70;37.80;;;;;;5052031;28;19908;-69
2022/12/14 04:55:12;;;;;;;;;;;35.90;38.80;;;;;;5053675;28;19958;-70
2022/12/14 04:58:07;;;;;;;;;;;36.00;37.70;;;;;;5053721;28;20002;-68
2022/12/14 05:00:36;;;;;;;;;;;36.20;37.50;;;;;;5042726;28;20015;-66
2022/12/14 05:03:09;;;;;;;;;;;37.00;36.70;;;;;;5048939;28;20003;-68
2022/12/14 05:05:36;;;;;;;;;;;36.80;36.60;;;;;;5037155;28;20015;-67
2022/12/14 05:08:02;;;;;;;;;;;36.70;37.90;;;;;;5054294;28;19908;-68
2022/12/14 05:10:51;;;;;;;;;;;36.70;37.10;;;;;;5048024;28;20274;-68
2022/12/14 05:13:35;;;;;;;;;;;36.00;37.40;;;;;;5050849;28;19944;-68
2022/12/14 05:16:02;;;;;;;;;;;35.40;37.70;;;;;;5051832;28;19986;-70
2022/12/14 05:18:29;;;;;;;;;;;35.20;38.70;;;;;;5042865;28;19920;-69
2022/12/14 05:20:55;;;;;;;;;;;35.40;37.90;;;;;;5043790;28;20371;-67
2022/12/14 05:23:22;;;;;;;;;;;35.20;38.60;;;;;;5040317;28;19916;-67
2022/12/14 05:25:49;;;;;;;;;;;34.80;38.00;;;;;;5042765;28;20429;-71
2022/12/14 05:28:15;;;;;;;;;;;34.60;38.60;;;;;;5042572;28;19912;-69
2022/12/14 05:30:42;;;;;;;;;;;34.40;38.50;;;;;;5043040;28;19921;-71
2022/12/14 05:33:18;;;;;;;;;;;33.90;39.30;;;;;;5044275;28;19968;-68
2022/12/14 05:35:45;;;;;;;;;;;33.60;39.10;;;;;;5066151;28;20357;-69
2022/12/14 05:38:12;;;;;;;;;;;33.30;39.80;;;;;;5044258;28;19916;-70
2022/12/14 05:40:39;;;;;;;;;;;32.70;39.70;;;;;;5039567;28;19927;-70
2022/12/14 05:43:06;;;;;;;;;;;32.50;40.70;;;;;;5041356;28;19909;-70
2022/12/14 05:45:33;;;;;;;;;;;31.90;40.10;;;;;;5040261;28;19921;-65
2022/12/14 05:47:59;;;;;;;;;;;30.80;41.50;;;;;;5043317;28;19908;-67
2022/12/14 05:50:26;;;;;;;;;;;29.60;42.30;;;;;;5033090;28;19920;-66
2022/12/14 05:52:54;;;;;;;;;;;29.10;43.60;;;;;;5047626;28;19908;-66
2022/12/14 05:55:21;;;;;;;;;;;28.90;43.30;;;;;;5047397;28;20141;-69
2022/12/14 05:57:47;;;;;;;;;;;28.60;43.30;;;;;;5037268;28;19967;-68
2022/12/14 06:00:14;;;;;;;;;;;28.10;43.60;;;;;;5053076;28;19908;-68
2022/12/14 06:02:41;;;;;;;;;;;27.60;43.50;;;;;;5051378;28;19912;-68
2022/12/14 06:05:08;;;;;;;;;;;27.40;43.80;;;;;;5053090;28;19916;-68
2022/12/14 06:07:34;;;;;;;;;;;27.30;44.00;;;;;;5050735;28;19955;-68
2022/12/14 06:10:01;;;;;;;;;;;27.20;44.60;;;;;;5052446;28;19943;-68
2022/12/14 06:12:27;;;;;;;;;;;27.20;44.10;;;;;;5055523;28;19917;-68
2022/12/14 06:14:54;;;;;;;;;;;27.00;44.00;;;;;;5056225;28;20375;-68
2022/12/14 06:17:21;;;;;;;;;;;26.80;44.30;;;;;;5057176;28;19988;-69
2022/12/14 06:19:47;;;;;;;;;;;26.90;44.80;;;;;;5048428;28;20314;-69
2022/12/14 06:22:14;;;;;;;;;;;26.80;44.50;;;;;;5045073;28;20372;-69
2022/12/14 06:24:41;;;;;;;;;;;26.50;44.80;;;;;;5050497;28;19927;-68
2022/12/14 06:27:07;;;;;;;;;;;26.30;45.70;;;;;;5056647;28;20480;-66
2022/12/14 06:29:34;;;;;;;;;;;26.40;44.70;;;;;;5057112;28;19991;-70
2022/12/14 06:32:00;;;;;;;;;;;26.40;44.70;;;;;;5055296;28;19908;-68
2022/12/14 06:34:27;;;;;;;;;;;26.20;45.00;;;;;;5056665;28;19916;-69
2022/12/14 06:36:54;;;;;;;;;;;26.30;45.80;;;;;;5055534;28;20376;-67
2022/12/14 06:39:20;;;;;;;;;;;26.30;45.40;;;;;;5056574;28;19908;-67
2022/12/14 06:41:50;;;;;;;;;;;26.10;45.60;;;;;;5055660;28;20003;-66
2022/12/14 06:44:17;;;;;;;;;;;26.30;45.50;;;;;;5036159;28;19940;-67
2022/12/14 06:46:44;;;;;;;;;;;26.10;45.90;;;;;;5051329;28;20546;-66
2022/12/14 06:49:12;;;;;;;;;;;26.30;45.90;;;;;;5046700;28;19909;-67
2022/12/14 06:51:39;;;;;;;;;;;26.30;45.60;;;;;;5041008;28;19913;-66
2022/12/14 06:54:06;;;;;;;;;;;26.00;46.00;;;;;;5043249;28;19912;-66
2022/12/14 06:56:36;;;;;;;;;;;25.70;46.60;;;;;;5052207;28;19912;-68
2022/12/14 06:59:04;;;;;;;;;;;25.60;46.70;;;;;;5054790;28;19916;-65
2022/12/14 07:01:30;;;;;;;;;;;25.70;47.30;;;;;;5053754;28;19916;-67
2022/12/14 07:03:58;;;;;;;;;;;25.80;47.40;;;;;;5046611;28;20024;-68
2022/12/14 07:06:26;;;;;;;;;;;25.60;47.20;;;;;;5045347;28;19927;-68
2022/12/14 07:08:53;;;;;;;;;;;25.50;46.50;;;;;;5040621;28;19999;-64
2022/12/14 07:11:20;;;;;;;;;;;25.20;47.20;;;;;;5037712;28;20526;-67
2022/12/14 07:13:47;;;;;;;;;;;25.10;47.60;;;;;;5053574;28;20349;-70
2022/12/14 07:16:19;;;;;;;;;;;24.90;47.70;;;;;;5055845;28;19909;-67
2022/12/14 07:18:46;;;;;;;;;;;24.80;47.80;;;;;;5052792;28;19915;-65
2022/12/14 07:21:13;;;;;;;;;;;24.70;48.00;;;;;;5038419;28;19920;-66
2022/12/14 07:23:41;;;;;;;;;;;24.60;48.00;;;;;;5054770;28;19909;-65
2022/12/14 07:26:12;;;;;;;;;;;24.50;48.30;;;;;;5053989;28;20253;-67
2022/12/14 07:28:39;;;;;;;;;;;24.20;48.70;;;;;;5054216;28;19982;-68
2022/12/14 07:31:07;;;;;;;;;;;24.00;49.20;;;;;;5054599;28;19909;-66
2022/12/14 07:33:34;;;;;;;;;;;23.70;49.40;;;;;;5055005;28;19909;-66
2022/12/14 07:36:05;;;;;;;;;;;23.60;49.90;;;;;;5054530;28;19999;-68
2022/12/14 07:38:32;;;;;;;;;;;23.70;49.80;;;;;;5053546;28;19995;-66
2022/12/14 07:41:03;;;;;;;;;;;23.60;49.30;;;;;;5055035;28;20211;-70
2022/12/14 07:43:30;;;;;;;;;;;23.60;49.40;;;;;;5045731;28;19912;-68
2022/12/14 07:46:04;;;;;;;;;;;23.60;49.70;;;;;;5052087;28;19924;-68
2022/12/14 07:48:31;;;;;;;;;;;23.40;49.50;;;;;;5048899;28;19965;-69
2022/12/14 07:51:01;;;;;;;;;;;23.30;49.50;;;;;;5043953;28;19916;-68
2022/12/14 07:53:28;;;;;;;;;;;23.10;49.90;;;;;;5048883;28;20755;-67
2022/12/14 07:55:54;;;;;;;;;;;23.00;49.30;;;;;;5056123;28;19912;-68
2022/12/14 07:58:21;;;;;;;;;;;22.80;49.70;;;;;;5050697;28;20424;-68
2022/12/14 08:00:48;;;;;;;;;;;22.60;49.80;;;;;;5057868;28;19915;-67
2022/12/14 08:03:14;;;;;;;;;;;22.50;50.10;;;;;;5056005;28;20299;-75
2022/12/14 08:05:41;;;;;;;;;;;22.30;50.70;;;;;;5045429;28;19973;-67
2022/12/14 08:08:08;;;;;;;;;;;22.40;50.90;;;;;;5056644;28;19908;-67
2022/12/14 08:10:34;;;;;;;;;;;22.30;50.80;;;;;;5052706;28;20452;-67
2022/12/14 08:13:01;;;;;;;;;;;22.20;50.90;;;;;;5056731;28;19958;-66
2022/12/14 08:15:27;;;;;;;;;;;22.20;51.00;;;;;;5047453;28;19917;-67
2022/12/14 08:17:54;;;;;;;;;;;22.10;51.40;;;;;;5041067;28;20003;-67
2022/12/14 08:20:21;;;;;;;;;;;21.90;51.20;;;;;;5057956;28;19908;-66
2022/12/14 08:22:50;;;;;;;;;;;21.70;51.60;;;;;;5053676;28;19904;-72
2022/12/14 08:25:16;;;;;;;;;;;21.60;51.80;;;;;;5055623;28;19924;-68
2022/12/14 08:27:46;;;;;;;;;;;21.60;51.60;;;;;;5054557;28;20301;-69
2022/12/14 08:30:13;;;;;;;;;;;21.50;51.80;;;;;;5056703;28;19991;-67
2022/12/14 08:32:40;;;;;;;;;;;21.60;51.90;;;;;;5053088;28;19962;-69
2022/12/14 08:35:06;;;;;;;;;;;21.50;51.40;;;;;;5057090;28;20317;-65
2022/12/14 08:37:33;;;;;;;;;;;21.50;51.10;;;;;;5043081;28;19984;-67
2022/12/14 08:40:00;;;;;;;;;;;21.40;51.50;;;;;;5046097;28;19917;-66
2022/12/14 08:42:26;;;;;;;;;;;21.40;51.50;;;;;;5043752;28;20262;-68
2022/12/14 08:44:53;;;;;;;;;;;21.20;51.80;;;;;;5053507;28;20020;-70
2022/12/14 08:47:19;;;;;;;;;;;21.20;52.30;;;;;;5056125;28;19916;-67
2022/12/14 08:49:46;;;;;;;;;;;21.10;51.90;;;;;;5053703;28;19971;-67
2022/12/14 08:52:13;;;;;;;;;;;21.00;52.00;;;;;;5056847;28;19909;-67
2022/12/14 08:54:39;;;;;;;;;;;21.00;52.40;;;;;;5053814;28;19917;-67
2022/12/14 08:57:06;;;;;;;;;;;20.90;52.50;;;;;;5044779;28;19909;-67
2022/12/14 08:59:32;;;;;;;;;;;20.80;52.50;;;;;;5044070;28;20104;-68
2022/12/14 09:01:59;;;;;;;;;;;20.50;52.70;;;;;;5046432;28;19916;-67
2022/12/14 09:04:26;;;;;;;;;;;20.80;52.80;;;;;;5054839;28;19920;-66
2022/12/14 09:06:52;;;;;;;;;;;20.80;52.80;;;;;;5049766;28;20284;-68
2022/12/14 09:09:19;;;;;;;;;;;20.70;52.60;;;;;;5055575;28;19912;-67
2022/12/14 09:11:45;;;;;;;;;;;20.70;52.70;;;;;;5048834;28;19909;-70
2022/12/14 09:14:12;;;;;;;;;;;20.70;53.10;;;;;;5046925;28;20369;-67
2022/12/14 09:16:39;;;;;;;;;;;20.70;53.00;;;;;;5053998;28;19917;-68
2022/12/14 09:19:06;;;;;;;;;;;20.60;53.30;;;;;;5057139;28;19920;-66
2022/12/14 09:21:33;;;;;;;;;;;20.60;53.40;;;;;;5054045;28;19916;-69
2022/12/14 09:24:00;;;;;;;;;;;20.50;54.00;;;;;;5053732;28;19912;-68
2022/12/14 09:26:27;;;;;;;;;;;20.50;53.60;;;;;;5049103;28;20005;-68
2022/12/14 09:28:54;;;;;;;;;;;20.50;53.70;;;;;;5054602;28;20376;-66
2022/12/14 09:31:23;;;;;;;;;;;20.40;53.90;;;;;;5055142;28;19939;-68
2022/12/14 09:33:49;;;;;;;;;;;20.40;54.10;;;;;;5035984;28;19916;-67
2022/12/14 09:36:17;;;;;;;;;;;20.40;54.50;;;;;;5050794;28;20325;-72
2022/12/14 09:38:44;;;;;;;;;;;20.40;54.30;;;;;;5038065;28;19951;-66
2022/12/14 09:41:23;;;;;;;;;;;20.40;54.40;;;;;;5056578;28;20008;-67
2022/12/14 09:44:15;;;;;;;;;;;20.30;54.60;;;;;;5047230;28;19948;-69
2022/12/14 09:46:42;;;;;;;;;;;20.30;55.00;;;;;;5043672;28;20393;-66
2022/12/14 09:49:27;;;;;;;;;;;20.30;55.30;;;;;;5056716;28;19928;-69
2022/12/14 09:51:55;;;;;;;;;;;20.20;55.10;;;;;;5050017;28;19908;-68
2022/12/14 09:54:25;;;;;;;;;;;20.20;56.10;;;;;;5051906;28;20361;-69
2022/12/14 09:56:53;;;;;;;;;;;20.10;55.50;;;;;;5043446;28;19909;-65
2022/12/14 09:59:19;;;;;;;;;;;20.10;55.70;;;;;;5040010;28;19943;-67
2022/12/14 10:01:49;;;;;;;;;;;20.10;55.70;;;;;;5035264;28;19909;-71
2022/12/14 10:04:31;;;;;;;;;;;20.10;56.00;;;;;;5055374;28;19920;-71
2022/12/14 10:07:21;;;;;;;;;;;20.00;55.80;;;;;;5040281;28;19931;-66
2022/12/14 10:10:06;;;;;;;;;;;20.00;55.90;;;;;;5037962;28;20358;-67
2022/12/14 10:12:40;;;;;;;;;;;19.80;55.90;;;;;;5043971;28;19948;-67
2022/12/14 10:15:07;;;;;;;;;;;19.90;56.30;;;;;;5039289;28;19909;-66
2022/12/14 10:17:52;;;;;;;;;;;19.80;56.50;;;;;;5036429;28;19994;-66
2022/12/14 10:20:22;;;;;;;;;;;19.80;57.10;;;;;;5045055;28;19966;-68
2022/12/14 10:22:51;;;;;;;;;;;19.80;57.20;;;;;;5044598;28;20504;-70
2022/12/14 10:25:25;;;;;;;;;;;19.80;57.50;;;;;;5042683;28;19921;-68
2022/12/14 10:27:56;;;;;;;;;;;19.70;57.10;;;;;;5031744;28;19921;-68
2022/12/14 10:30:23;;;;;;;;;;;19.70;57.00;;;;;;5050475;28;19916;-68
2022/12/14 10:32:53;;;;;;;;;;;19.70;57.50;;;;;;5054104;28;20388;-66
2022/12/14 10:35:26;;;;;;;;;;;19.70;57.40;;;;;;5041877;28;19920;-69
2022/12/14 10:37:59;;;;;;;;;;;19.60;57.50;;;;;;5039782;28;19916;-70
2022/12/14 10:40:25;;;;;;;;;;;19.60;58.10;;;;;;5045149;28;19921;-66
2022/12/14 10:43:01;;;;;;;;;;;19.70;58.50;;;;;;5043516;28;19999;-67
2022/12/14 10:45:28;;;;;;;;;;;19.60;58.00;;;;;;5044829;28;19916;-68
2022/12/14 10:47:59;;;;;;;;;;;19.60;57.90;;;;;;5052622;28;19954;-67
2022/12/14 10:50:36;;;;;;;;;;;19.60;58.30;;;;;;5052921;28;20734;-68
2022/12/14 10:53:04;;;;;;;;;;;19.50;58.80;;;;;;5042337;28;19917;-68
2022/12/14 10:55:37;;;;;;;;;;;19.50;58.30;;;;;;5049404;28;19916;-67
2022/12/14 10:58:04;;;;;;;;;;;19.50;58.80;;;;;;5045097;28;19912;-66
2022/12/14 11:00:31;;;;;;;;;;;19.40;58.90;;;;;;5047587;28;19916;-66
2022/12/14 11:02:57;;;;;;;;;;;19.40;59.20;;;;;;5045046;28;19909;-67
2022/12/14 11:05:42;;;;;;;;;;;19.40;59.00;;;;;;5046139;28;19962;-67
2022/12/14 11:08:09;;;;;;;;;;;19.40;59.60;;;;;;5044796;28;20011;-68
2022/12/14 11:10:38;;;;;;;;;;;19.30;59.30;;;;;;5046099;28;19961;-68
2022/12/14 11:13:05;;;;;;;;;;;19.30;59.40;;;;;;5046317;28;19909;-67
2022/12/14 11:15:39;;;;;;;;;;;19.30;59.60;;;;;;5049453;28;20044;-67
2022/12/14 11:18:12;;;;;;;;;;;19.30;59.70;;;;;;5049042;28;19932;-66
2022/12/14 11:20:59;;;;;;;;;;;19.30;59.90;;;;;;5050676;28;19912;-66
2022/12/14 11:23:30;;;;;;;;;;;19.30;59.80;;;;;;5046647;28;19908;-67
2022/12/14 11:26:00;;;;;;;;;;;19.30;60.30;;;;;;5044872;28;20377;-68
2022/12/14 11:28:32;;;;;;;;;;;19.30;60.50;;;;;;5047485;28;19909;-68
2022/12/14 11:30:59;;;;;;;;;;;19.20;62.10;;;;;;5041747;28;20380;-66
2022/12/14 11:33:29;;;;;;;;;;;19.10;63.40;;;;;;5038943;28;20003;-68
2022/12/14 11:35:55;;;;;;;;;;;19.10;65.50;;;;;;5055360;28;20003;-68
2022/12/14 11:38:23;;;;;;;;;;;19.10;66.40;;;;;;5055835;28;20014;-68
2022/12/14 11:40:50;;;;;;;;;;;19.20;67.50;;;;;;5039420;28;20573;-67
2022/12/14 11:43:27;;;;;;;;;;;19.10;68.70;;;;;;5039823;28;19908;-67
2022/12/14 11:45:55;;;;;;;;;;;19.20;69.30;;;;;;5040963;28;20273;-68
2022/12/14 11:48:26;;;;;;;;;;;19.20;70.30;;;;;;5036038;28;19912;-68
2022/12/14 11:50:54;;;;;;;;;;;19.20;70.00;;;;;;5035993;28;19912;-67
2022/12/14 11:53:22;;;;;;;;;;;19.30;70.10;;;;;;5040368;28;20360;-67
2022/12/14 11:55:52;;;;;;;;;;;19.30;70.50;;;;;;5048267;28;19912;-70
2022/12/14 11:58:30;;;;;;;;;;;19.30;70.70;;;;;;5035747;28;19971;-67
2022/12/14 12:01:05;;;;;;;;;;;19.30;71.10;;;;;;5035947;28;19975;-67
2022/12/14 12:03:41;;;;;;;;;;;19.20;71.60;;;;;;5037292;28;19955;-66
2022/12/14 12:06:13;;;;;;;;;;;19.20;73.40;;;;;;5041422;28;19967;-70
2022/12/14 12:08:41;;;;;;;;;;;19.10;74.20;;;;;;5075795;28;19948;-69
2022/12/14 12:11:23;;;;;;;;;;;19.10;75.50;;;;;;5073300;28;19914;-68
2022/12/14 12:13:57;;;;;;;;;;;19.00;77.30;;;;;;5073642;28;19930;-70
2022/12/14 12:16:25;;;;;;;;;;;19.00;79.10;;;;;;5074255;28;19978;-67
2022/12/14 12:19:06;;;;;;;;;;;18.90;80.30;;;;;;5073265;28;19908;-69
2022/12/14 12:21:35;;;;;;;;;;;18.90;81.10;;;;;;5075586;28;19908;-69
2022/12/14 12:24:10;;;;;;;;;;;18.80;82.20;;;;;;5069405;28;19908;-70
2022/12/14 12:26:43;;;;;;;;;;;18.80;83.20;;;;;;5034801;28;19925;-69
2022/12/14 12:29:09;;;;;;;;;;;18.70;83.80;;;;;;5034898;28;19912;-68
2022/12/14 12:31:59;;;;;;;;;;;18.60;84.20;;;;;;5036782;28;19913;-68
2022/12/14 12:34:34;;;;;;;;;;;18.50;84.80;;;;;;5032875;28;20412;-68
2022/12/14 12:37:04;;;;;;;;;;;18.50;85.40;;;;;;5036339;28;19967;-68
2022/12/14 12:39:34;;;;;;;;;;;18.50;86.40;;;;;;5041247;28;19912;-68
2022/12/14 12:42:21;;;;;;;;;;;18.50;86.10;;;;;;5055778;28;19912;-73
2022/12/14 12:44:47;;;;;;;;;;;18.40;86.40;;;;;;5052885;28;20440;-71
2022/12/14 12:47:19;;;;;;;;;;;18.30;87.30;;;;;;5054175;28;20317;-70
2022/12/14 12:49:45;;;;;;;;;;;18.30;87.50;;;;;;5053929;28;19920;-67
2022/12/14 12:52:23;;;;;;;;;;;18.20;88.30;;;;;;5055362;28;20299;-70
2022/12/14 12:54:55;;;;;;;;;;;18.20;88.50;;;;;;5053907;28;20007;-68
2022/12/14 12:57:22;;;;;;;;;;;18.10;88.70;;;;;;5056348;28;19970;-69
2022/12/14 12:59:50;;;;;;;;;;;18.00;89.70;;;;;;5053090;28;19940;-69
2022/12/14 13:02:46;;;;;;;;;;;18.10;90.10;;;;;;5056050;28;19916;-69
2022/12/14 13:05:14;;;;;;;;;;;18.10;90.30;;;;;;5051327;28;19913;-69
2022/12/14 13:07:42;;;;;;;;;;;18.00;90.10;;;;;;5054528;28;19916;-68
2022/12/14 13:10:21;;;;;;;;;;;18.00;89.80;;;;;;5055525;28;19908;-71
2022/12/14 13:12:56;;;;;;;;;;;18.00;90.30;;;;;;5052443;28;19916;-69
2022/12/14 13:15:30;;;;;;;;;;;17.90;90.30;;;;;;5054144;28;20363;-69
2022/12/14 13:18:20;;;;;;;;;;;17.90;90.30;;;;;;5053221;28;19913;-67
2022/12/14 13:20:48;;;;;;;;;;;17.90;90.80;;;;;;5050815;28;19913;-68
2022/12/14 13:23:15;;;;;;;;;;;17.90;90.60;;;;;;5056616;28;19912;-68
2022/12/14 13:25:41;;;;;;;;;;;17.90;90.60;;;;;;5054795;28;19924;-69
2022/12/14 13:28:26;;;;;;;;;;;17.80;89.80;;;;;;5054123;28;19920;-67
2022/12/14 13:30:59;;;;;;;;;;;17.70;89.70;;;;;;5053060;28;20357;-67
2022/12/14 13:33:25;;;;;;;;;;;17.60;88.50;;;;;;5056319;28;19912;-68
2022/12/14 13:36:10;;;;;;;;;;;17.50;87.80;;;;;;5053305;28;19952;-67
2022/12/14 13:38:43;;;;;;;;;;;17.50;86.90;;;;;;5054516;28;19912;-66
2022/12/14 13:41:21;;;;;;;;;;;17.50;86.30;;;;;;5054977;28;19939;-65
2022/12/14 13:44:05;;;;;;;;;;;17.50;86.60;;;;;;5053803;28;20380;-66
2022/12/14 13:46:32;;;;;;;;;;;17.50;84.40;;;;;;5055316;28;20377;-67
2022/12/14 13:49:01;;;;;;;;;;;17.40;83.20;;;;;;5055515;28;20365;-66
2022/12/14 13:51:30;;;;;;;;;;;17.50;81.70;;;;;;5054577;28;19920;-66
2022/12/14 13:53:57;;;;;;;;;;;17.40;80.90;;;;;;5056328;28;20011;-66
2022/12/14 13:56:28;;;;;;;;;;;17.40;80.30;;;;;;5051242;28;19915;-68
2022/12/14 13:58:55;;;;;;;;;;;17.40;80.80;;;;;;5054314;28;20311;-68
2022/12/14 14:01:22;;;;;;;;;;;17.50;80.70;;;;;;5054405;28;19909;-66
2022/12/14 14:03:48;;;;;;;;;;;17.40;79.60;;;;;;5054028;28;19913;-66
2022/12/14 14:06:17;;;;;;;;;;;17.40;79.10;;;;;;5053579;28;19912;-71
2022/12/14 14:08:45;;;;;;;;;;;17.40;78.80;;;;;;5054311;28;20457;-69
2022/12/14 14:11:20;;;;;;;;;;;17.40;78.20;;;;;;5053967;28;19908;-68
2022/12/14 14:13:47;;;;;;;;;;;17.30;78.00;;;;;;5054698;28;19909;-67
2022/12/14 14:16:24;;;;;;;;;;;17.30;77.60;;;;;;5050793;28;19947;-68
2022/12/14 14:19:03;;;;;;;;;;;17.30;77.20;;;;;;5055389;28;19951;-66
2022/12/14 14:21:32;;;;;;;;;;;17.30;78.00;;;;;;5051827;28;20029;-66
2022/12/14 14:24:00;;;;;;;;;;;17.20;77.00;;;;;;5055077;28;19909;-65
2022/12/14 14:26:32;;;;;;;;;;;17.20;76.70;;;;;;5051604;28;19975;-71
2022/12/14 14:29:14;;;;;;;;;;;17.10;75.70;;;;;;5054136;28;19909;-67
2022/12/14 14:31:43;;;;;;;;;;;17.10;76.50;;;;;;5056062;28;20293;-69
2022/12/14 14:34:15;;;;;;;;;;;17.10;76.00;;;;;;5058072;28;20000;-65
2022/12/14 14:36:43;;;;;;;;;;;17.10;75.30;;;;;;5059584;28;20012;-69
2022/12/14 14:39:28;;;;;;;;;;;17.00;74.60;;;;;;5059718;28;20045;-66
2022/12/14 14:41:55;;;;;;;;;;;17.00;74.80;;;;;;5058240;28;19948;-66
2022/12/14 14:44:28;;;;;;;;;;;16.90;74.20;;;;;;5054235;28;20007;-66
2022/12/14 14:46:55;;;;;;;;;;;16.80;74.10;;;;;;5058268;28;20432;-66